RA73750 URKG-UMOO
Flight info
| Callsign | RA73750 |
|---|---|
| Flight time | 2h 23m |
| Altitude | 40000 |
| Route | OSNIR W343 SM A961 NZ DCT TADIL G901 WGD G481 OBABI N50 NEGLE DCT US DCT DERFU DCT TIBTA DCT ASKIL T346 DIFTO |
| Aircraft | C750/M-SBDE3FGHRWXY/H |
Departure
| Time | 2026-05-04 15:20 |
|---|---|
| Airport | Gelendzhik Airport (URKG) |
Arrival
| Time | 2026-05-04 17:43 |
|---|---|
| Airport | Mogilev Airport (UMOO) |
| Time | Latitude | Longitude | Altitude | Speed | Heading |
|---|---|---|---|---|---|
| 2026-05-04 14:58 | 44.59475 | 38.02050 | 140 ft | 0 kts | 14° |
| 2026-05-04 15:10 | 44.59461 | 38.02045 | 143 ft | 3 kts | 14° |
| 2026-05-04 15:10 | 44.59443 | 38.02038 | 139 ft | 3 kts | 14° |
| 2026-05-04 15:10 | 44.59408 | 38.02046 | 140 ft | 3 kts | 298° |
| 2026-05-04 15:11 | 44.59405 | 38.02055 | 137 ft | 0 kts | 280° |
| 2026-05-04 15:13 | 44.59406 | 38.02047 | 140 ft | 2 kts | 279° |
| 2026-05-04 15:13 | 44.59406 | 38.02012 | 140 ft | 6 kts | 270° |
| 2026-05-04 15:13 | 44.59428 | 38.01951 | 141 ft | 8 kts | 312° |
| 2026-05-04 15:14 | 44.59467 | 38.01894 | 143 ft | 9 kts | 314° |
| 2026-05-04 15:14 | 44.59500 | 38.01812 | 144 ft | 11 kts | 258° |
| 2026-05-04 15:14 | 44.59427 | 38.01734 | 135 ft | 16 kts | 196° |
| 2026-05-04 15:14 | 44.59308 | 38.01690 | 135 ft | 18 kts | 194° |
| 2026-05-04 15:15 | 44.59180 | 38.01645 | 128 ft | 20 kts | 194° |
| 2026-05-04 15:15 | 44.59032 | 38.01593 | 123 ft | 22 kts | 195° |
| 2026-05-04 15:15 | 44.58887 | 38.01538 | 123 ft | 21 kts | 194° |
| 2026-05-04 15:16 | 44.58642 | 38.01461 | 127 ft | 16 kts | 193° |
| 2026-05-04 15:16 | 44.58524 | 38.01419 | 127 ft | 19 kts | 194° |
| 2026-05-04 15:16 | 44.58258 | 38.01327 | 127 ft | 23 kts | 194° |
| 2026-05-04 15:17 | 44.58087 | 38.01265 | 125 ft | 27 kts | 195° |
| 2026-05-04 15:17 | 44.57734 | 38.01135 | 122 ft | 25 kts | 195° |
| 2026-05-04 15:17 | 44.57561 | 38.01074 | 119 ft | 25 kts | 193° |
| 2026-05-04 15:18 | 44.57391 | 38.01017 | 116 ft | 25 kts | 193° |
| 2026-05-04 15:18 | 44.57277 | 38.00980 | 113 ft | 25 kts | 193° |
| 2026-05-04 15:18 | 44.57220 | 38.00961 | 111 ft | 26 kts | 193° |
| 2026-05-04 15:19 | 44.56988 | 38.00886 | 105 ft | 15 kts | 194° |
| 2026-05-04 15:19 | 44.56889 | 38.00878 | 104 ft | 13 kts | 191° |
| 2026-05-04 15:19 | 44.56920 | 38.00848 | 103 ft | 1 kts | 14° |
| 2026-05-04 15:20 | 44.57047 | 38.00895 | 105 ft | 58 kts | 13° |
| 2026-05-04 15:20 | 44.57746 | 38.01142 | 124 ft | 137 kts | 14° |
| 2026-05-04 15:20 | 44.58714 | 38.01467 | 566 ft | 146 kts | 16° |
| 2026-05-04 15:20 | 44.59708 | 38.01727 | 1158 ft | 155 kts | 4° |
| 2026-05-04 15:21 | 44.60769 | 38.01096 | 1752 ft | 172 kts | 333° |
| 2026-05-04 15:21 | 44.61608 | 37.99811 | 2351 ft | 189 kts | 304° |
| 2026-05-04 15:21 | 44.61496 | 37.96001 | 3522 ft | 221 kts | 234° |
| 2026-05-04 15:22 | 44.60273 | 37.94656 | 4120 ft | 234 kts | 199° |
| 2026-05-04 15:22 | 44.58646 | 37.94576 | 4713 ft | 249 kts | 162° |
| 2026-05-04 15:22 | 44.56658 | 37.98509 | 6066 ft | 278 kts | 92° |
| 2026-05-04 15:23 | 44.56975 | 38.01045 | 6821 ft | 288 kts | 75° |
| 2026-05-04 15:23 | 44.57758 | 38.03705 | 7651 ft | 300 kts | 66° |
| 2026-05-04 15:23 | 44.58625 | 38.06369 | 8480 ft | 296 kts | 68° |
| 2026-05-04 15:23 | 44.59337 | 38.09037 | 9422 ft | 286 kts | 73° |
| 2026-05-04 15:24 | 44.60662 | 38.14468 | 10490 ft | 319 kts | 72° |
| 2026-05-04 15:24 | 44.62325 | 38.20760 | 11164 ft | 354 kts | 72° |
| 2026-05-04 15:25 | 44.63158 | 38.24019 | 11936 ft | 356 kts | 73° |
| 2026-05-04 15:25 | 44.64000 | 38.27325 | 12610 ft | 361 kts | 73° |
| 2026-05-04 15:25 | 44.64861 | 38.30666 | 13328 ft | 366 kts | 73° |
| 2026-05-04 15:26 | 44.66611 | 38.37460 | 14661 ft | 371 kts | 73° |
| 2026-05-04 15:26 | 44.67479 | 38.40856 | 15350 ft | 372 kts | 73° |
| 2026-05-04 15:26 | 44.69241 | 38.47747 | 16745 ft | 376 kts | 73° |
| 2026-05-04 15:27 | 44.70126 | 38.51213 | 17456 ft | 378 kts | 72° |
| 2026-05-04 15:27 | 44.71903 | 38.58198 | 18856 ft | 383 kts | 72° |
| 2026-05-04 15:28 | 44.73708 | 38.65311 | 20226 ft | 388 kts | 72° |
| 2026-05-04 15:28 | 44.74607 | 38.68861 | 20908 ft | 390 kts | 72° |
| 2026-05-04 15:28 | 44.76440 | 38.76120 | 22277 ft | 396 kts | 72° |
| 2026-05-04 15:29 | 44.77471 | 38.79741 | 22884 ft | 401 kts | 65° |
| 2026-05-04 15:30 | 44.83981 | 38.92782 | 25146 ft | 413 kts | 56° |
| 2026-05-04 15:30 | 44.89092 | 39.02712 | 26739 ft | 422 kts | 56° |
| 2026-05-04 15:31 | 44.92558 | 39.09483 | 27818 ft | 427 kts | 56° |
| 2026-05-04 15:31 | 44.94310 | 39.12903 | 28363 ft | 430 kts | 56° |
| 2026-05-04 15:32 | 44.99598 | 39.23266 | 29956 ft | 438 kts | 56° |
| 2026-05-04 15:32 | 45.03192 | 39.30329 | 30785 ft | 445 kts | 56° |
| 2026-05-04 15:33 | 45.06786 | 39.37407 | 31958 ft | 443 kts | 57° |
| 2026-05-04 15:34 | 45.12148 | 39.48004 | 33728 ft | 441 kts | 57° |
| 2026-05-04 15:34 | 45.13920 | 39.51514 | 34248 ft | 441 kts | 57° |
| 2026-05-04 15:34 | 45.17505 | 39.58632 | 35102 ft | 445 kts | 57° |
| 2026-05-04 15:35 | 45.21099 | 39.65783 | 35957 ft | 448 kts | 57° |
| 2026-05-04 15:35 | 45.23048 | 39.69276 | 36332 ft | 453 kts | 52° |
| 2026-05-04 15:35 | 45.25167 | 39.72639 | 36775 ft | 455 kts | 50° |
| 2026-05-04 15:36 | 45.29216 | 39.79076 | 37583 ft | 459 kts | 51° |
| 2026-05-04 15:36 | 45.31128 | 39.82205 | 37991 ft | 461 kts | 51° |
| 2026-05-04 15:36 | 45.33145 | 39.85468 | 38407 ft | 463 kts | 51° |
| 2026-05-04 15:37 | 45.35239 | 39.88812 | 38781 ft | 466 kts | 51° |
| 2026-05-04 15:37 | 45.37376 | 39.92247 | 39005 ft | 471 kts | 51° |
| 2026-05-04 15:37 | 45.39537 | 39.95767 | 38971 ft | 483 kts | 51° |
| 2026-05-04 15:37 | 45.41662 | 39.99228 | 38982 ft | 493 kts | 51° |
| 2026-05-04 15:38 | 45.46223 | 40.06596 | 39001 ft | 511 kts | 51° |
| 2026-05-04 15:38 | 45.50764 | 40.14006 | 38992 ft | 523 kts | 51° |
| 2026-05-04 15:39 | 45.55458 | 40.21648 | 39003 ft | 530 kts | 51° |
| 2026-05-04 15:40 | 45.62560 | 40.33285 | 39000 ft | 532 kts | 51° |
| 2026-05-04 15:40 | 45.67267 | 40.41008 | 38998 ft | 529 kts | 51° |
| 2026-05-04 15:41 | 45.71972 | 40.48767 | 38987 ft | 525 kts | 51° |
| 2026-05-04 15:41 | 45.76690 | 40.56557 | 38987 ft | 523 kts | 51° |
| 2026-05-04 15:42 | 45.81303 | 40.64204 | 38993 ft | 522 kts | 51° |
| 2026-05-04 15:42 | 45.85955 | 40.71930 | 38990 ft | 522 kts | 51° |
| 2026-05-04 15:43 | 45.90490 | 40.79486 | 38991 ft | 523 kts | 51° |
| 2026-05-04 15:43 | 45.95145 | 40.87261 | 38990 ft | 523 kts | 51° |
| 2026-05-04 15:44 | 45.99741 | 40.94960 | 38995 ft | 523 kts | 51° |
| 2026-05-04 15:44 | 46.04375 | 41.02746 | 38997 ft | 523 kts | 51° |
| 2026-05-04 15:45 | 46.09008 | 41.10550 | 39000 ft | 524 kts | 51° |
| 2026-05-04 15:45 | 46.13597 | 41.18302 | 39000 ft | 524 kts | 51° |
| 2026-05-04 15:46 | 46.18262 | 41.26206 | 38994 ft | 524 kts | 51° |
| 2026-05-04 15:46 | 46.22851 | 41.34004 | 38995 ft | 524 kts | 51° |
| 2026-05-04 15:47 | 46.27480 | 41.41890 | 38998 ft | 524 kts | 52° |
| 2026-05-04 15:47 | 46.32224 | 41.49615 | 38980 ft | 527 kts | 45° |
| 2026-05-04 15:48 | 46.37918 | 41.55919 | 39004 ft | 529 kts | 36° |
| 2026-05-04 15:48 | 46.46517 | 41.65366 | 39008 ft | 529 kts | 40° |
| 2026-05-04 15:49 | 46.52236 | 41.71471 | 39009 ft | 530 kts | 37° |
| 2026-05-04 15:49 | 46.58175 | 41.78094 | 39013 ft | 529 kts | 40° |
| 2026-05-04 15:50 | 46.64066 | 41.84568 | 39014 ft | 529 kts | 38° |
| 2026-05-04 15:50 | 46.69898 | 41.91020 | 39015 ft | 528 kts | 39° |
| 2026-05-04 15:51 | 46.75757 | 41.97544 | 39014 ft | 528 kts | 38° |
| 2026-05-04 15:51 | 46.81587 | 42.03996 | 39011 ft | 528 kts | 39° |
| 2026-05-04 15:52 | 46.87463 | 42.10517 | 39011 ft | 528 kts | 38° |
| 2026-05-04 15:52 | 46.93287 | 42.16990 | 39013 ft | 528 kts | 38° |
| 2026-05-04 15:53 | 46.99144 | 42.23527 | 39012 ft | 528 kts | 38° |
| 2026-05-04 15:53 | 47.04966 | 42.30039 | 39011 ft | 528 kts | 39° |
| 2026-05-04 15:54 | 47.10801 | 42.36612 | 39006 ft | 528 kts | 38° |
| 2026-05-04 15:54 | 47.16609 | 42.43153 | 38999 ft | 528 kts | 39° |
| 2026-05-04 15:55 | 47.22445 | 42.49757 | 39007 ft | 528 kts | 39° |
| 2026-05-04 15:55 | 47.27311 | 42.55272 | 38996 ft | 528 kts | 39° |
| 2026-05-04 15:56 | 47.34091 | 42.62983 | 38994 ft | 529 kts | 39° |
| 2026-05-04 15:56 | 47.38943 | 42.68515 | 38996 ft | 529 kts | 39° |
| 2026-05-04 15:57 | 47.44782 | 42.75192 | 39003 ft | 529 kts | 39° |
| 2026-05-04 15:57 | 47.51532 | 42.82941 | 38994 ft | 530 kts | 39° |
| 2026-05-04 15:58 | 47.56385 | 42.88525 | 38994 ft | 531 kts | 39° |
| 2026-05-04 15:58 | 47.62219 | 42.95259 | 38993 ft | 531 kts | 39° |
| 2026-05-04 15:59 | 47.67943 | 43.01877 | 39085 ft | 496 kts | 39° |
| 2026-05-04 15:59 | 47.70597 | 43.04954 | 39153 ft | 473 kts | 39° |
| 2026-05-04 15:59 | 47.73114 | 43.07882 | 39263 ft | 457 kts | 39° |
| 2026-05-04 16:00 | 47.78180 | 43.13780 | 39419 ft | 469 kts | 39° |
| 2026-05-04 16:00 | 47.83360 | 43.19829 | 39620 ft | 476 kts | 39° |
| 2026-05-04 16:01 | 47.88570 | 43.25949 | 39812 ft | 475 kts | 39° |
| 2026-05-04 16:01 | 47.93748 | 43.32035 | 39997 ft | 481 kts | 39° |
| 2026-05-04 16:02 | 47.96413 | 43.35179 | 40023 ft | 492 kts | 39° |
| 2026-05-04 16:02 | 47.99131 | 43.38388 | 40020 ft | 503 kts | 39° |
| 2026-05-04 16:02 | 48.04731 | 43.45008 | 40023 ft | 521 kts | 39° |
| 2026-05-04 16:03 | 48.07565 | 43.48368 | 40023 ft | 528 kts | 39° |
| 2026-05-04 16:03 | 48.13387 | 43.55282 | 40020 ft | 538 kts | 39° |
| 2026-05-04 16:04 | 48.19250 | 43.62267 | 40022 ft | 538 kts | 39° |
| 2026-05-04 16:04 | 48.27975 | 43.72823 | 40020 ft | 538 kts | 39° |
| 2026-05-04 16:05 | 48.33786 | 43.79858 | 40015 ft | 534 kts | 39° |
| 2026-05-04 16:06 | 48.42442 | 43.90421 | 40034 ft | 535 kts | 39° |
| 2026-05-04 16:07 | 48.53989 | 44.04562 | 40032 ft | 534 kts | 39° |
| 2026-05-04 16:08 | 48.65498 | 44.18746 | 40034 ft | 535 kts | 39° |
| 2026-05-04 16:08 | 48.74804 | 44.27983 | 40010 ft | 533 kts | 21° |
| 2026-05-04 16:09 | 48.81923 | 44.30644 | 40014 ft | 530 kts | 4° |
| 2026-05-04 16:09 | 48.89259 | 44.30137 | 40013 ft | 527 kts | 347° |
| 2026-05-04 16:10 | 48.96145 | 44.26506 | 40017 ft | 523 kts | 332° |
| 2026-05-04 16:11 | 49.09040 | 44.16325 | 40020 ft | 524 kts | 337° |
| 2026-05-04 16:12 | 49.29111 | 44.05210 | 40026 ft | 524 kts | 339° |
| 2026-05-04 16:13 | 49.42373 | 43.97555 | 40038 ft | 523 kts | 338° |
| 2026-05-04 16:14 | 49.55410 | 43.87752 | 40027 ft | 516 kts | 319° |
| 2026-05-04 16:16 | 49.69090 | 43.69814 | 40036 ft | 519 kts | 317° |
| 2026-05-04 16:17 | 49.82901 | 43.51697 | 40036 ft | 520 kts | 317° |
| 2026-05-04 16:18 | 49.93959 | 43.37179 | 40036 ft | 520 kts | 317° |
| 2026-05-04 16:19 | 50.07712 | 43.18976 | 40037 ft | 520 kts | 317° |
| 2026-05-04 16:20 | 50.21427 | 43.00700 | 40042 ft | 520 kts | 317° |
| 2026-05-04 16:22 | 50.35161 | 42.82257 | 40031 ft | 520 kts | 317° |
| 2026-05-04 16:23 | 50.51593 | 42.59994 | 40027 ft | 520 kts | 317° |
| 2026-05-04 16:25 | 50.69357 | 42.40338 | 40021 ft | 522 kts | 324° |
| 2026-05-04 16:26 | 50.90366 | 42.17685 | 40024 ft | 522 kts | 324° |
| 2026-05-04 16:28 | 51.05306 | 42.01380 | 40018 ft | 522 kts | 324° |
| 2026-05-04 16:29 | 51.26196 | 41.78375 | 40013 ft | 522 kts | 324° |
| 2026-05-04 16:31 | 51.41050 | 41.61856 | 40010 ft | 520 kts | 323° |
| 2026-05-04 16:32 | 51.58810 | 41.41930 | 40009 ft | 520 kts | 323° |
| 2026-05-04 16:33 | 51.70628 | 41.28565 | 39996 ft | 519 kts | 323° |
| 2026-05-04 16:34 | 51.79500 | 41.18481 | 39993 ft | 520 kts | 323° |
| 2026-05-04 16:35 | 51.97195 | 40.98215 | 39981 ft | 519 kts | 323° |
| 2026-05-04 16:36 | 52.06130 | 40.88249 | 39966 ft | 520 kts | 328° |
| 2026-05-04 16:37 | 52.15622 | 40.79651 | 39981 ft | 521 kts | 329° |
| 2026-05-04 16:38 | 52.28227 | 40.67985 | 39978 ft | 521 kts | 329° |
| 2026-05-04 16:39 | 52.43953 | 40.53317 | 39968 ft | 520 kts | 329° |
| 2026-05-04 16:40 | 52.56512 | 40.41576 | 39959 ft | 519 kts | 329° |
| 2026-05-04 16:41 | 52.72199 | 40.26856 | 39960 ft | 519 kts | 329° |
| 2026-05-04 16:43 | 52.87805 | 40.12089 | 39944 ft | 518 kts | 329° |
| 2026-05-04 16:43 | 52.96127 | 40.04167 | 39942 ft | 517 kts | 329° |
| 2026-05-04 16:45 | 53.14822 | 39.86240 | 39940 ft | 516 kts | 329° |
| 2026-05-04 16:46 | 53.30352 | 39.71210 | 39936 ft | 516 kts | 328° |
| 2026-05-04 16:47 | 53.41657 | 39.57902 | 39912 ft | 512 kts | 311° |
| 2026-05-04 16:48 | 53.47078 | 39.42418 | 39933 ft | 510 kts | 293° |
| 2026-05-04 16:48 | 53.48472 | 39.36916 | 39931 ft | 511 kts | 292° |
| 2026-05-04 16:49 | 53.54939 | 39.15693 | 39923 ft | 511 kts | 295° |
| 2026-05-04 16:50 | 53.61329 | 38.94283 | 39926 ft | 511 kts | 295° |
| 2026-05-04 16:51 | 53.66069 | 38.78211 | 39932 ft | 511 kts | 296° |
| 2026-05-04 16:52 | 53.72361 | 38.56824 | 39930 ft | 510 kts | 296° |
| 2026-05-04 16:53 | 53.76244 | 38.40102 | 39925 ft | 509 kts | 286° |
| 2026-05-04 16:54 | 53.80390 | 38.17192 | 39927 ft | 509 kts | 286° |
| 2026-05-04 16:55 | 53.86491 | 37.82849 | 39924 ft | 509 kts | 287° |
| 2026-05-04 16:56 | 53.91540 | 37.54102 | 39920 ft | 508 kts | 286° |
| 2026-05-04 16:57 | 53.94529 | 37.36845 | 39920 ft | 508 kts | 286° |
| 2026-05-04 16:58 | 53.98472 | 37.13824 | 39919 ft | 508 kts | 286° |
| 2026-05-04 17:00 | 54.04311 | 36.79151 | 39914 ft | 508 kts | 286° |
| 2026-05-04 17:01 | 54.09092 | 36.50241 | 39911 ft | 508 kts | 285° |
| 2026-05-04 17:02 | 54.12871 | 36.27037 | 39910 ft | 508 kts | 285° |
| 2026-05-04 17:03 | 54.15669 | 36.09649 | 39906 ft | 508 kts | 285° |
| 2026-05-04 17:03 | 54.18443 | 35.92230 | 39903 ft | 508 kts | 285° |
| 2026-05-04 17:04 | 54.22041 | 35.69362 | 39895 ft | 508 kts | 285° |
| 2026-05-04 17:05 | 54.25580 | 35.46560 | 39901 ft | 508 kts | 284° |
| 2026-05-04 17:06 | 54.28210 | 35.29409 | 39899 ft | 508 kts | 284° |
| 2026-05-04 17:07 | 54.30483 | 35.14431 | 39895 ft | 508 kts | 284° |
| 2026-05-04 17:07 | 54.32501 | 35.01021 | 39896 ft | 508 kts | 284° |
| 2026-05-04 17:08 | 54.35139 | 34.83314 | 39893 ft | 507 kts | 284° |
| 2026-05-04 17:09 | 54.36719 | 34.71479 | 39862 ft | 507 kts | 277° |
| 2026-05-04 17:09 | 54.37307 | 34.59478 | 39894 ft | 507 kts | 274° |
| 2026-05-04 17:10 | 54.38828 | 34.29371 | 39893 ft | 507 kts | 275° |
| 2026-05-04 17:11 | 54.39442 | 34.17313 | 39890 ft | 506 kts | 275° |
| 2026-05-04 17:12 | 54.40285 | 33.99286 | 39889 ft | 506 kts | 274° |
| 2026-05-04 17:13 | 54.41658 | 33.69213 | 39888 ft | 506 kts | 274° |
| 2026-05-04 17:14 | 54.42667 | 33.45896 | 39880 ft | 505 kts | 274° |
| 2026-05-04 17:15 | 54.43396 | 33.28303 | 39882 ft | 505 kts | 274° |
| 2026-05-04 17:16 | 54.44332 | 33.04716 | 39881 ft | 505 kts | 274° |
| 2026-05-04 17:17 | 54.45217 | 32.81285 | 39883 ft | 504 kts | 273° |
| 2026-05-04 17:18 | 54.46071 | 32.57439 | 39888 ft | 504 kts | 273° |
| 2026-05-04 17:18 | 54.46477 | 32.45602 | 39287 ft | 483 kts | 273° |
| 2026-05-04 17:19 | 54.46851 | 32.34384 | 37694 ft | 455 kts | 273° |
| 2026-05-04 17:19 | 54.47195 | 32.23789 | 35841 ft | 436 kts | 273° |
| 2026-05-04 17:20 | 54.47521 | 32.13443 | 34104 ft | 430 kts | 273° |
| 2026-05-04 17:20 | 54.47837 | 32.03168 | 32291 ft | 437 kts | 273° |
| 2026-05-04 17:20 | 54.47996 | 31.97904 | 31412 ft | 440 kts | 272° |
| 2026-05-04 17:21 | 54.48306 | 31.87334 | 29691 ft | 441 kts | 272° |
| 2026-05-04 17:21 | 54.48604 | 31.76933 | 27426 ft | 432 kts | 272° |
| 2026-05-04 17:22 | 54.48747 | 31.71803 | 26334 ft | 423 kts | 272° |
| 2026-05-04 17:22 | 54.48883 | 31.66872 | 25920 ft | 401 kts | 272° |
| 2026-05-04 17:23 | 54.49263 | 31.52574 | 24361 ft | 400 kts | 272° |
| 2026-05-04 17:23 | 54.49387 | 31.47813 | 23836 ft | 397 kts | 271° |
| 2026-05-04 17:23 | 54.49626 | 31.38362 | 22755 ft | 390 kts | 271° |
| 2026-05-04 17:24 | 54.49740 | 31.33717 | 22243 ft | 388 kts | 271° |
| 2026-05-04 17:24 | 54.50070 | 31.19978 | 20735 ft | 380 kts | 272° |
| 2026-05-04 17:25 | 54.50175 | 31.15444 | 20246 ft | 377 kts | 272° |
| 2026-05-04 17:25 | 54.49432 | 31.06712 | 19236 ft | 372 kts | 249° |
| 2026-05-04 17:26 | 54.46634 | 30.99201 | 18293 ft | 371 kts | 237° |
| 2026-05-04 17:26 | 54.42306 | 30.88373 | 16807 ft | 363 kts | 237° |
| 2026-05-04 17:27 | 54.39463 | 30.81312 | 15860 ft | 358 kts | 237° |
| 2026-05-04 17:27 | 54.36658 | 30.74346 | 14932 ft | 354 kts | 237° |
| 2026-05-04 17:28 | 54.33857 | 30.67416 | 14000 ft | 350 kts | 237° |
| 2026-05-04 17:29 | 54.29744 | 30.57265 | 12608 ft | 343 kts | 237° |
| 2026-05-04 17:29 | 54.25781 | 30.47219 | 11273 ft | 337 kts | 237° |
| 2026-05-04 17:30 | 54.22237 | 30.38339 | 10188 ft | 281 kts | 237° |
| 2026-05-04 17:31 | 54.20146 | 30.33088 | 9489 ft | 270 kts | 237° |
| 2026-05-04 17:31 | 54.17346 | 30.26084 | 8562 ft | 268 kts | 237° |
| 2026-05-04 17:32 | 54.14004 | 30.21599 | 7720 ft | 270 kts | 204° |
| 2026-05-04 17:33 | 54.09312 | 30.18606 | 6800 ft | 267 kts | 204° |
| 2026-05-04 17:33 | 54.07585 | 30.17482 | 6445 ft | 264 kts | 204° |
| 2026-05-04 17:34 | 54.02483 | 30.14192 | 5388 ft | 260 kts | 204° |
| 2026-05-04 17:34 | 54.00795 | 30.13105 | 5046 ft | 259 kts | 204° |
| 2026-05-04 17:35 | 53.95624 | 30.10819 | 3954 ft | 264 kts | 175° |
| 2026-05-04 17:35 | 53.92499 | 30.14036 | 3342 ft | 272 kts | 140° |
| 2026-05-04 17:35 | 53.91137 | 30.16296 | 3008 ft | 274 kts | 140° |
| 2026-05-04 17:36 | 53.89607 | 30.18089 | 2619 ft | 255 kts | 157° |
| 2026-05-04 17:36 | 53.88093 | 30.19242 | 2324 ft | 228 kts | 161° |
| 2026-05-04 17:36 | 53.86712 | 30.20273 | 2294 ft | 207 kts | 161° |
| 2026-05-04 17:36 | 53.85405 | 30.21266 | 2294 ft | 210 kts | 161° |
| 2026-05-04 17:37 | 53.84042 | 30.22294 | 2304 ft | 216 kts | 161° |
| 2026-05-04 17:37 | 53.82741 | 30.23281 | 2294 ft | 192 kts | 161° |
| 2026-05-04 17:37 | 53.81557 | 30.23820 | 2158 ft | 167 kts | 192° |
| 2026-05-04 17:37 | 53.80592 | 30.22972 | 2112 ft | 152 kts | 218° |
| 2026-05-04 17:38 | 53.79875 | 30.21670 | 2213 ft | 156 kts | 238° |
| 2026-05-04 17:38 | 53.79497 | 30.19954 | 2314 ft | 158 kts | 259° |
| 2026-05-04 17:38 | 53.79554 | 30.18080 | 2318 ft | 162 kts | 279° |
| 2026-05-04 17:38 | 53.80074 | 30.16381 | 2294 ft | 168 kts | 303° |
| 2026-05-04 17:39 | 53.82261 | 30.14827 | 2287 ft | 180 kts | 357° |
| 2026-05-04 17:39 | 53.83380 | 30.15080 | 2283 ft | 149 kts | 1° |
| 2026-05-04 17:39 | 53.84331 | 30.15266 | 2279 ft | 128 kts | 357° |
| 2026-05-04 17:40 | 53.85201 | 30.15418 | 2298 ft | 125 kts | 357° |
| 2026-05-04 17:40 | 53.86098 | 30.15573 | 2268 ft | 134 kts | 358° |
| 2026-05-04 17:40 | 53.87048 | 30.15743 | 2093 ft | 141 kts | 360° |
| 2026-05-04 17:40 | 53.88024 | 30.15926 | 1920 ft | 140 kts | 359° |
| 2026-05-04 17:41 | 53.88985 | 30.16108 | 1746 ft | 138 kts | 359° |
| 2026-05-04 17:41 | 53.89941 | 30.16286 | 1578 ft | 139 kts | 359° |
| 2026-05-04 17:41 | 53.90892 | 30.16252 | 1423 ft | 134 kts | 339° |
| 2026-05-04 17:41 | 53.91646 | 30.15449 | 1273 ft | 127 kts | 317° |
| 2026-05-04 17:42 | 53.92338 | 30.14516 | 1123 ft | 128 kts | 316° |
| 2026-05-04 17:42 | 53.92997 | 30.13496 | 1013 ft | 126 kts | 314° |
| 2026-05-04 17:42 | 53.93628 | 30.12471 | 896 ft | 126 kts | 313° |
| 2026-05-04 17:42 | 53.94263 | 30.11460 | 750 ft | 124 kts | 314° |
| 2026-05-04 17:43 | 53.94887 | 30.10469 | 628 ft | 121 kts | 314° |
| 2026-05-04 17:43 | 53.95470 | 30.09537 | 614 ft | 105 kts | 314° |
| 2026-05-04 17:43 | 53.95871 | 30.08897 | 610 ft | 52 kts | 317° |
| 2026-05-04 17:43 | 53.96076 | 30.08564 | 616 ft | 38 kts | 315° |
| 2026-05-04 17:44 | 53.96239 | 30.08303 | 611 ft | 24 kts | 318° |
| 2026-05-04 17:44 | 53.96358 | 30.08201 | 620 ft | 17 kts | 339° |
| 2026-05-04 17:44 | 53.96345 | 30.08142 | 615 ft | 8 kts | 139° |
| 2026-05-04 17:44 | 53.96297 | 30.08227 | 609 ft | 11 kts | 136° |
| 2026-05-04 17:45 | 53.96237 | 30.08322 | 611 ft | 14 kts | 137° |
| 2026-05-04 17:45 | 53.96152 | 30.08452 | 611 ft | 19 kts | 137° |
| 2026-05-04 17:45 | 53.96049 | 30.08614 | 612 ft | 20 kts | 136° |
| 2026-05-04 17:45 | 53.95946 | 30.08778 | 611 ft | 20 kts | 136° |
| 2026-05-04 17:46 | 53.95844 | 30.08946 | 615 ft | 21 kts | 136° |
| 2026-05-04 17:46 | 53.95741 | 30.09107 | 610 ft | 19 kts | 136° |
| 2026-05-04 17:46 | 53.95648 | 30.09263 | 611 ft | 17 kts | 136° |
| 2026-05-04 17:46 | 53.95619 | 30.09364 | 612 ft | 8 kts | 63° |
| 2026-05-04 17:47 | 53.95660 | 30.09441 | 615 ft | 9 kts | 47° |
| 2026-05-04 17:47 | 53.95703 | 30.09522 | 615 ft | 9 kts | 47° |
| 2026-05-04 17:47 | 53.95747 | 30.09577 | 611 ft | 7 kts | 5° |
| 2026-05-04 17:47 | 53.95798 | 30.09580 | 611 ft | 7 kts | 5° |
| 2026-05-04 17:48 | 53.95848 | 30.09586 | 611 ft | 7 kts | 4° |
| 2026-05-04 17:48 | 53.95895 | 30.09583 | 617 ft | 7 kts | 343° |
| 2026-05-04 17:48 | 53.95918 | 30.09553 | 611 ft | 6 kts | 319° |
| 2026-05-04 17:48 | 53.95959 | 30.09489 | 611 ft | 6 kts | 316° |
| 2026-05-04 17:49 | 53.95988 | 30.09458 | 611 ft | 3 kts | 13° |
| 2026-05-04 17:49 | 53.96001 | 30.09499 | 611 ft | 6 kts | 92° |
| 2026-05-04 17:49 | 53.95979 | 30.09557 | 618 ft | 5 kts | 134° |
| 2026-05-04 17:49 | 53.95966 | 30.09561 | 617 ft | 0 kts | 200° |
| 2026-05-04 17:50 | 53.95963 | 30.09555 | 615 ft | 0 kts | 223° |